Time;durP1;ratioP1;P1;durP2;ratioP2;P2;SDS_P1;SDS_P2;PMS_P1;PMS_P2;Temp;Humidity;BMP_temperature;BMP_pressure;BME280_temperature;BME280_humidity;BME280_pressure;Samples;Min_cycle;Max_cycle;Signal;HPM_P1;HPM_P2
2021/10/26 00:00:38;;;;;;;13.73;6.28;;;9.20;62.30;;;;;;6275690;22;20010;-66
2021/10/26 00:03:04;;;;;;;8.90;6.25;;;9.20;62.30;;;;;;6275834;22;20439;-66
2021/10/26 00:05:30;;;;;;;12.20;7.78;;;9.20;62.40;;;;;;6277374;22;20454;-67
2021/10/26 00:07:56;;;;;;;13.23;7.18;;;9.20;62.60;;;;;;6277249;22;20000;-66
2021/10/26 00:10:22;;;;;;;16.42;8.82;;;9.20;62.60;;;;;;6276937;22;20423;-67
2021/10/26 00:12:48;;;;;;;13.95;8.52;;;9.20;62.80;;;;;;6276931;22;20339;-67
2021/10/26 00:15:14;;;;;;;13.55;7.88;;;9.20;62.90;;;;;;6277471;22;20019;-66
2021/10/26 00:17:39;;;;;;;10.25;6.00;;;9.20;62.90;;;;;;6277248;22;20329;-67
2021/10/26 00:20:07;;;;;;;16.10;8.50;;;9.30;62.90;;;;;;6277375;22;20003;-66
2021/10/26 00:22:33;;;;;;;15.63;8.90;;;9.30;63.10;;;;;;6277330;22;20030;-66
2021/10/26 00:25:00;;;;;;;17.50;10.02;;;9.30;63.10;;;;;;6277551;22;20000;-67
2021/10/26 00:27:26;;;;;;;21.35;11.50;;;9.30;63.40;;;;;;6277650;22;20003;-66
2021/10/26 00:29:52;;;;;;;21.55;11.63;;;9.30;64.00;;;;;;6277764;22;20007;-66
2021/10/26 00:32:18;;;;;;;20.23;11.20;;;9.30;64.50;;;;;;6277424;22;20007;-66
2021/10/26 00:34:44;;;;;;;18.65;10.60;;;9.20;64.70;;;;;;6276826;22;20366;-67
2021/10/26 00:37:13;;;;;;;19.98;10.35;;;9.30;64.80;;;;;;6277039;22;19995;-67
2021/10/26 00:39:39;;;;;;;18.58;10.82;;;9.30;64.80;;;;;;6275434;22;20026;-67
2021/10/26 00:42:05;;;;;;;18.23;9.18;;;9.30;64.80;;;;;;6277075;22;20004;-67
2021/10/26 00:44:34;;;;;;;17.55;8.07;;;9.30;64.60;;;;;;6277025;22;20304;-67
2021/10/26 00:47:00;;;;;;;20.67;10.15;;;9.30;64.50;;;;;;6276986;22;20000;-67
2021/10/26 00:49:26;;;;;;;15.48;8.80;;;9.30;64.40;;;;;;6277035;22;20028;-67
2021/10/26 00:51:55;;;;;;;12.80;8.00;;;9.30;64.20;;;;;;6276814;22;20079;-67
2021/10/26 00:54:26;;;;;;;17.98;9.48;;;9.30;64.00;;;;;;6277000;22;20024;-67
2021/10/26 00:56:52;;;;;;;13.52;7.88;;;9.40;64.00;;;;;;6276853;22;20004;-67
2021/10/26 00:59:18;;;;;;;12.40;6.95;;;9.40;63.90;;;;;;6276934;22;20049;-67
2021/10/26 01:01:44;;;;;;;14.98;8.80;;;9.40;63.70;;;;;;6276794;22;20006;-67
2021/10/26 01:04:10;;;;;;;15.30;8.70;;;9.40;63.70;;;;;;6276893;22;20019;-67
2021/10/26 01:06:36;;;;;;;14.63;8.82;;;9.40;63.70;;;;;;6276732;22;20049;-67
2021/10/26 01:09:04;;;;;;;18.70;10.18;;;9.40;64.40;;;;;;6276795;22;20000;-66
2021/10/26 01:11:32;;;;;;;19.52;10.45;;;9.40;63.60;;;;;;6276798;22;20327;-66
2021/10/26 01:13:58;;;;;;;17.98;10.18;;;9.40;63.70;;;;;;6274860;22;20043;-67
2021/10/26 01:16:25;;;;;;;15.73;8.52;;;9.40;63.60;;;;;;6276727;22;20000;-68
2021/10/26 01:18:52;;;;;;;15.27;8.25;;;9.30;63.40;;;;;;6276734;22;20003;-67
2021/10/26 01:21:18;;;;;;;13.43;7.80;;;9.30;63.30;;;;;;6275063;22;20004;-66
2021/10/26 01:23:44;;;;;;;16.02;7.63;;;9.30;63.10;;;;;;6276123;22;19996;-67
2021/10/26 01:26:10;;;;;;;16.30;8.23;;;9.30;63.00;;;;;;6276539;22;20075;-67
2021/10/26 01:28:36;;;;;;;14.80;7.53;;;9.30;63.10;;;;;;6276510;22;20007;-67
2021/10/26 01:31:02;;;;;;;14.50;7.65;;;9.30;63.00;;;;;;6276551;22;20446;-66
2021/10/26 01:33:28;;;;;;;14.70;8.02;;;9.30;63.00;;;;;;6276337;22;20350;-67
2021/10/26 01:35:54;;;;;;;13.07;7.90;;;9.30;63.00;;;;;;6276539;22;20006;-67
2021/10/26 01:38:25;;;;;;;24.35;8.30;;;9.20;63.00;;;;;;6276432;22;19996;-67
2021/10/26 01:40:51;;;;;;;13.23;7.55;;;9.20;63.20;;;;;;6274966;22;20054;-67
2021/10/26 01:43:18;;;;;;;13.43;7.68;;;9.20;63.10;;;;;;6276461;22;19999;-66
2021/10/26 01:45:44;;;;;;;17.50;8.00;;;9.20;63.10;;;;;;6276395;22;20004;-67
2021/10/26 01:48:10;;;;;;;10.60;6.80;;;9.20;63.00;;;;;;6276376;22;20052;-67
2021/10/26 01:50:35;;;;;;;14.95;7.63;;;9.20;63.00;;;;;;6276414;22;20038;-67
2021/10/26 01:53:02;;;;;;;11.80;7.25;;;9.20;63.10;;;;;;6276307;22;20419;-67
2021/10/26 01:55:28;;;;;;;12.20;7.20;;;9.20;63.00;;;;;;6276142;22;20099;-67
2021/10/26 01:57:54;;;;;;;13.05;7.35;;;9.20;63.00;;;;;;6276314;22;20020;-67
2021/10/26 02:00:21;;;;;;;14.82;7.32;;;9.10;63.00;;;;;;6276271;22;20000;-67
2021/10/26 02:02:50;;;;;;;16.98;7.03;;;9.10;63.00;;;;;;6276021;22;20078;-67
2021/10/26 02:05:17;;;;;;;13.63;7.25;;;9.10;63.00;;;;;;6276007;22;20007;-67
2021/10/26 02:07:45;;;;;;;18.27;8.38;;;9.10;63.00;;;;;;6274402;22;20011;-67
2021/10/26 02:10:13;;;;;;;15.30;7.80;;;9.10;63.00;;;;;;6275942;22;20003;-67
2021/10/26 02:12:39;;;;;;;14.18;7.32;;;9.10;63.10;;;;;;6275635;22;20011;-67
2021/10/26 02:15:06;;;;;;;13.57;7.95;;;9.10;63.00;;;;;;6275928;22;20010;-66
2021/10/26 02:17:33;;;;;;;16.23;8.35;;;9.00;63.00;;;;;;6275934;22;19999;-66
2021/10/26 02:19:59;;;;;;;17.60;8.32;;;9.10;63.20;;;;;;6275941;22;19992;-67
2021/10/26 02:22:24;;;;;;;16.23;8.15;;;9.00;63.30;;;;;;6275948;22;20510;-67
2021/10/26 02:24:50;;;;;;;14.80;7.88;;;9.00;63.30;;;;;;6275951;22;20027;-68
2021/10/26 02:27:16;;;;;;;16.05;8.32;;;9.00;63.30;;;;;;6275839;22;20000;-67
2021/10/26 02:29:42;;;;;;;25.90;9.65;;;9.00;63.30;;;;;;6275676;22;20472;-67
2021/10/26 02:32:09;;;;;;;15.32;8.35;;;9.00;63.50;;;;;;6274101;22;20007;-67
2021/10/26 02:34:35;;;;;;;20.58;9.50;;;9.00;63.80;;;;;;6277115;22;20006;-67
2021/10/26 02:37:01;;;;;;;17.73;9.20;;;9.00;63.90;;;;;;6278061;22;20004;-66
2021/10/26 02:39:27;;;;;;;11.77;7.78;;;9.00;63.90;;;;;;6278000;22;20479;-67
2021/10/26 02:41:53;;;;;;;25.23;11.13;;;9.00;63.90;;;;;;6277981;22;20004;-67
2021/10/26 02:44:19;;;;;;;14.60;8.60;;;9.00;63.90;;;;;;6277942;22;20501;-67
2021/10/26 02:46:45;;;;;;;15.73;8.88;;;9.00;63.90;;;;;;6278019;22;20000;-67
2021/10/26 02:49:14;;;;;;;12.93;7.78;;;9.00;63.90;;;;;;6278059;22;20332;-66
2021/10/26 02:51:40;;;;;;;15.35;8.20;;;8.90;63.70;;;;;;6278172;22;20024;-66
2021/10/26 02:54:06;;;;;;;12.25;7.32;;;8.90;64.50;;;;;;6277899;22;20049;-66
2021/10/26 02:56:32;;;;;;;15.63;8.18;;;8.90;63.60;;;;;;6277872;22;20072;-66
2021/10/26 02:58:58;;;;;;;15.93;8.48;;;8.90;63.80;;;;;;6277895;22;19995;-66
2021/10/26 03:01:23;;;;;;;15.00;8.35;;;8.90;63.70;;;;;;6277873;22;20007;-66
2021/10/26 03:03:51;;;;;;;12.10;7.43;;;8.90;63.70;;;;;;6277889;22;20004;-66
2021/10/26 03:06:17;;;;;;;14.50;8.40;;;8.80;63.60;;;;;;6277768;22;20000;-66
2021/10/26 03:08:43;;;;;;;16.30;8.70;;;8.80;63.60;;;;;;6277902;22;20007;-66
2021/10/26 03:11:09;;;;;;;11.80;7.70;;;8.80;63.60;;;;;;6277893;22;20008;-67
2021/10/26 03:13:35;;;;;;;15.68;8.88;;;8.80;63.60;;;;;;6277504;22;20027;-66
2021/10/26 03:16:01;;;;;;;20.35;9.23;;;8.70;63.50;;;;;;6277776;22;20075;-66
2021/10/26 03:18:27;;;;;;;14.85;8.48;;;8.70;63.40;;;;;;6277730;22;19996;-66
2021/10/26 03:20:55;;;;;;;16.10;9.27;;;8.70;63.40;;;;;;6277675;22;20452;-66
2021/10/26 03:23:20;;;;;;;14.43;9.15;;;8.60;63.40;;;;;;6277742;22;20004;-66
2021/10/26 03:25:46;;;;;;;16.77;8.05;;;8.60;63.50;;;;;;6276127;22;20086;-66
2021/10/26 03:28:13;;;;;;;12.32;7.30;;;8.60;63.50;;;;;;6277595;22;20391;-66
2021/10/26 03:30:39;;;;;;;14.60;8.40;;;8.50;63.50;;;;;;6277943;22;19999;-66
2021/10/26 03:33:04;;;;;;;13.02;8.13;;;8.50;63.70;;;;;;6277430;22;20007;-66
2021/10/26 03:35:30;;;;;;;15.40;8.27;;;8.50;63.90;;;;;;6277601;22;20436;-66
2021/10/26 03:37:56;;;;;;;17.45;8.90;;;8.50;63.90;;;;;;6277512;22;20067;-66
2021/10/26 03:40:22;;;;;;;12.38;7.80;;;8.50;63.90;;;;;;6277585;22;19996;-66
2021/10/26 03:42:48;;;;;;;17.48;8.75;;;8.50;63.90;;;;;;6277558;22;20427;-66
2021/10/26 03:45:13;;;;;;;17.40;9.45;;;8.40;63.90;;;;;;6276948;22;20004;-66
2021/10/26 03:47:46;;;;;;;14.35;8.63;;;8.40;63.90;;;;;;6277577;22;20215;-66
2021/10/26 03:50:14;;;;;;;15.02;9.20;;;8.40;64.00;;;;;;6277537;22;20003;-66
2021/10/26 03:52:40;;;;;;;15.50;9.90;;;8.40;64.10;;;;;;6277376;22;20308;-65
2021/10/26 03:55:07;;;;;;;17.92;9.98;;;8.40;64.10;;;;;;6277410;22;20049;-66
2021/10/26 03:57:34;;;;;;;19.65;9.18;;;8.30;64.00;;;;;;6277332;22;20026;-66
2021/10/26 04:00:00;;;;;;;10.13;6.80;;;8.30;64.00;;;;;;6275817;22;20014;-66
2021/10/26 04:02:30;;;;;;;12.73;7.70;;;8.30;63.90;;;;;;6277286;22;20006;-66
2021/10/26 04:05:04;;;;;;;14.27;7.78;;;8.20;63.90;;;;;;6277133;22;20316;-66
2021/10/26 04:07:31;;;;;;;12.77;8.13;;;8.20;63.90;;;;;;6277205;22;20034;-66
2021/10/26 04:12:25;;;;;;;13.80;8.15;;;8.20;64.10;;;;;;6277192;22;20012;-66
2021/10/26 04:14:56;;;;;;;13.60;8.20;;;8.20;64.20;;;;;;6275742;22;20387;-66
2021/10/26 04:17:23;;;;;;;11.73;7.80;;;8.20;64.30;;;;;;6277147;22;20002;-66
2021/10/26 04:19:50;;;;;;;13.88;8.05;;;8.20;64.40;;;;;;6277186;22;20074;-66
2021/10/26 04:22:17;;;;;;;15.25;9.80;;;8.20;64.40;;;;;;6277127;22;20071;-66
2021/10/26 04:24:44;;;;;;;16.88;9.95;;;8.20;64.60;;;;;;6276974;22;20004;-66
2021/10/26 04:27:12;;;;;;;15.93;10.48;;;8.20;65.30;;;;;;6277040;22;20004;-66
2021/10/26 04:29:38;;;;;;;20.90;10.27;;;8.20;65.60;;;;;;6276989;22;19999;-66
2021/10/26 04:32:06;;;;;;;18.52;9.55;;;8.20;65.80;;;;;;6276871;22;20074;-66
2021/10/26 04:34:32;;;;;;;19.48;11.32;;;8.20;66.00;;;;;;6277003;22;20022;-66
2021/10/26 04:36:58;;;;;;;22.33;11.30;;;8.30;66.20;;;;;;6276949;22;20438;-66
2021/10/26 04:39:24;;;;;;;16.63;9.98;;;8.30;66.30;;;;;;6277035;22;20000;-66
2021/10/26 04:41:50;;;;;;;13.38;8.30;;;8.40;66.10;;;;;;6276875;22;20067;-66
2021/10/26 04:44:16;;;;;;;27.50;10.60;;;8.40;65.90;;;;;;6276928;22;20444;-66
2021/10/26 04:46:42;;;;;;;15.65;8.35;;;8.40;65.80;;;;;;6275229;22;20011;-66
2021/10/26 04:49:07;;;;;;;25.02;10.85;;;8.40;65.80;;;;;;6276871;22;20074;-66
2021/10/26 04:51:33;;;;;;;34.35;11.38;;;8.40;66.00;;;;;;6276811;22;20295;-66
2021/10/26 04:54:00;;;;;;;22.70;11.35;;;8.40;67.10;;;;;;6276742;22;20327;-66
2021/10/26 04:56:26;;;;;;;17.83;10.68;;;8.50;66.60;;;;;;6276554;22;19996;-66
2021/10/26 04:58:52;;;;;;;23.70;11.27;;;8.50;66.80;;;;;;6276898;22;20006;-66
2021/10/26 05:01:18;;;;;;;17.15;9.45;;;8.50;66.80;;;;;;6276806;22;20077;-66
2021/10/26 05:03:44;;;;;;;14.88;9.35;;;8.50;66.70;;;;;;6274899;22;20415;-66
2021/10/26 05:06:10;;;;;;;15.63;8.55;;;8.50;66.60;;;;;;6276623;22;20447;-67
2021/10/26 05:08:35;;;;;;;15.20;9.18;;;8.60;66.60;;;;;;6276547;22;20000;-66
2021/10/26 05:11:01;;;;;;;15.10;8.48;;;8.60;66.40;;;;;;6276652;22;20008;-66
2021/10/26 05:13:29;;;;;;;16.50;8.60;;;8.60;66.30;;;;;;6276215;22;20035;-66
2021/10/26 05:15:57;;;;;;;12.25;8.38;;;8.60;66.10;;;;;;6276520;22;20006;-66
2021/10/26 05:18:23;;;;;;;15.70;9.30;;;8.60;66.00;;;;;;6276594;22;20023;-66
2021/10/26 05:20:50;;;;;;;13.52;8.95;;;8.60;66.00;;;;;;6276450;22;20053;-66
2021/10/26 05:23:17;;;;;;;14.35;9.05;;;8.60;66.00;;;;;;6276450;22;20068;-66
2021/10/26 05:25:47;;;;;;;15.32;8.55;;;8.60;65.90;;;;;;6276425;22;20335;-66
2021/10/26 05:28:13;;;;;;;13.27;7.90;;;8.60;65.70;;;;;;6276448;22;20427;-66
2021/10/26 05:30:39;;;;;;;14.60;7.95;;;8.70;65.70;;;;;;6276369;22;20000;-66
2021/10/26 05:33:05;;;;;;;21.85;9.38;;;8.70;65.70;;;;;;6276289;22;20054;-66
2021/10/26 05:35:31;;;;;;;19.23;9.27;;;8.60;65.60;;;;;;6276480;22;20442;-66
2021/10/26 05:37:56;;;;;;;11.55;7.43;;;8.70;65.70;;;;;;6276403;22;20000;-66
2021/10/26 05:40:22;;;;;;;19.13;10.30;;;8.70;65.70;;;;;;6276329;22;20481;-66
2021/10/26 05:42:48;;;;;;;14.85;9.75;;;8.70;65.70;;;;;;6276379;22;20419;-66
2021/10/26 05:45:14;;;;;;;15.68;8.57;;;8.80;65.80;;;;;;6276300;22;20335;-66
2021/10/26 05:47:39;;;;;;;14.35;8.80;;;8.70;65.70;;;;;;6276284;22;20004;-66
2021/10/26 05:50:06;;;;;;;14.55;8.27;;;8.80;65.70;;;;;;6276285;22;20003;-66
2021/10/26 05:52:32;;;;;;;16.42;9.98;;;8.80;65.60;;;;;;6276151;22;20386;-66
2021/10/26 05:54:58;;;;;;;14.75;9.48;;;8.90;65.60;;;;;;6276326;22;20023;-66
2021/10/26 05:57:23;;;;;;;17.23;10.02;;;8.90;65.50;;;;;;6276098;22;20004;-66
2021/10/26 05:59:49;;;;;;;20.25;10.75;;;8.90;65.40;;;;;;6276142;22;20039;-68
2021/10/26 06:02:15;;;;;;;14.82;9.10;;;9.00;65.30;;;;;;6275978;22;20379;-67
2021/10/26 06:04:41;;;;;;;15.40;8.80;;;9.00;65.10;;;;;;6276056;22;20000;-67
2021/10/26 06:07:06;;;;;;;14.65;8.30;;;9.00;65.00;;;;;;6276156;22;19999;-67
2021/10/26 06:09:33;;;;;;;17.23;9.95;;;9.00;65.00;;;;;;6275776;22;20007;-67
2021/10/26 06:12:01;;;;;;;16.02;9.35;;;9.10;65.00;;;;;;6275966;22;20000;-67
2021/10/26 06:14:27;;;;;;;14.50;8.88;;;9.10;65.00;;;;;;6275891;22;20126;-68
2021/10/26 06:17:00;;;;;;;13.63;8.70;;;9.10;65.00;;;;;;6274457;22;20003;-67
2021/10/26 06:19:26;;;;;;;16.65;9.57;;;9.20;65.10;;;;;;6276096;22;20492;-67
2021/10/26 06:21:52;;;;;;;15.40;9.70;;;9.20;65.10;;;;;;6276053;22;20000;-67
2021/10/26 06:24:17;;;;;;;19.40;10.30;;;9.30;65.10;;;;;;6274287;22;20094;-67
2021/10/26 06:26:43;;;;;;;15.20;9.18;;;9.30;65.00;;;;;;6274357;22;20004;-67
2021/10/26 06:29:09;;;;;;;20.80;10.65;;;9.40;64.90;;;;;;6275929;22;20048;-67
2021/10/26 06:31:35;;;;;;;17.15;10.63;;;9.40;64.80;;;;;;6274339;22;20435;-67
2021/10/26 06:34:01;;;;;;;14.88;8.25;;;9.50;64.80;;;;;;6275808;22;20010;-67
2021/10/26 06:36:27;;;;;;;19.85;10.93;;;9.50;64.90;;;;;;6275919;22;20000;-66
2021/10/26 06:38:53;;;;;;;25.08;14.40;;;9.50;64.90;;;;;;6275975;22;20004;-66
2021/10/26 06:41:20;;;;;;;25.17;14.43;;;9.60;64.90;;;;;;6275824;22;20006;-66
2021/10/26 06:43:46;;;;;;;28.58;15.07;;;9.70;64.90;;;;;;6275757;22;20003;-66
2021/10/26 06:46:12;;;;;;;27.15;14.32;;;9.70;64.90;;;;;;6276430;22;20443;-66
2021/10/26 06:48:37;;;;;;;32.92;17.75;;;9.80;64.90;;;;;;6276393;22;20075;-66
2021/10/26 06:51:04;;;;;;;39.97;19.10;;;9.80;64.80;;;;;;6276358;22;20004;-66
2021/10/26 06:53:30;;;;;;;31.65;16.52;;;9.90;64.60;;;;;;6276121;22;20004;-66
2021/10/26 06:56:03;;;;;;;31.27;17.13;;;9.90;64.50;;;;;;6274158;22;20000;-66
2021/10/26 06:58:29;;;;;;;32.70;17.77;;;10.00;64.50;;;;;;6275949;22;19996;-67
2021/10/26 07:00:55;;;;;;;34.28;17.92;;;10.10;64.50;;;;;;6275600;22;20007;-66
2021/10/26 07:03:21;;;;;;;50.58;22.00;;;10.10;64.20;;;;;;6275921;22;19999;-66
2021/10/26 07:05:47;;;;;;;45.70;20.70;;;10.20;64.20;;;;;;6275887;22;20004;-66
2021/10/26 07:08:13;;;;;;;37.55;18.20;;;10.20;64.00;;;;;;6275915;22;20454;-66
2021/10/26 07:10:39;;;;;;;38.88;19.17;;;10.30;63.80;;;;;;6275768;22;19999;-67
2021/10/26 07:13:05;;;;;;;30.67;16.15;;;10.40;63.70;;;;;;6275579;22;20087;-67
2021/10/26 07:15:32;;;;;;;34.88;17.35;;;10.40;63.60;;;;;;6275914;22;20002;-66
2021/10/26 07:17:59;;;;;;;31.80;16.70;;;10.40;63.40;;;;;;6275681;22;19996;-66
2021/10/26 07:20:25;;;;;;;44.13;18.25;;;10.50;63.20;;;;;;6276688;22;20042;-67
2021/10/26 07:22:53;;;;;;;34.35;15.80;;;10.50;63.00;;;;;;6277724;22;20011;-67
2021/10/26 07:25:20;;;;;;;31.33;17.63;;;10.50;62.90;;;;;;6277685;22;20004;-67
2021/10/26 07:27:47;;;;;;;37.08;19.33;;;10.60;62.90;;;;;;6277688;22;20034;-67
2021/10/26 07:30:13;;;;;;;31.60;17.95;;;10.60;62.80;;;;;;6277676;22;20004;-67
2021/10/26 07:32:41;;;;;;;36.13;20.35;;;10.70;62.80;;;;;;6277303;22;20490;-66
2021/10/26 07:35:07;;;;;;;30.42;16.00;;;10.70;62.70;;;;;;6277728;22;20057;-66
2021/10/26 07:37:37;;;;;;;34.38;18.95;;;10.70;62.70;;;;;;6277554;22;20031;-66
2021/10/26 07:40:04;;;;;;;34.20;16.42;;;10.80;62.70;;;;;;6277607;22;20026;-67
2021/10/26 07:42:30;;;;;;;35.63;18.90;;;10.90;62.60;;;;;;6277633;22;20313;-67
2021/10/26 07:44:56;;;;;;;32.80;16.45;;;10.90;62.30;;;;;;6277533;22;20106;-66
2021/10/26 07:47:23;;;;;;;33.42;18.08;;;10.90;62.20;;;;;;6277513;22;20190;-67
2021/10/26 07:49:50;;;;;;;27.90;15.30;;;11.00;62.10;;;;;;6277569;22;20319;-66
2021/10/26 07:52:17;;;;;;;36.45;16.48;;;11.00;62.10;;;;;;6277292;22;20004;-66
2021/10/26 07:54:49;;;;;;;29.83;15.40;;;11.00;62.10;;;;;;6277390;22;20000;-67
2021/10/26 07:57:17;;;;;;;29.25;15.48;;;11.00;62.00;;;;;;6275720;22;20068;-67
2021/10/26 07:59:43;;;;;;;29.83;14.88;;;11.00;61.80;;;;;;6277313;22;20010;-67
2021/10/26 08:02:10;;;;;;;29.10;15.70;;;11.10;61.60;;;;;;6277367;22;20000;-67
2021/10/26 08:04:38;;;;;;;23.98;13.35;;;11.00;61.30;;;;;;6277439;22;20393;-67
2021/10/26 08:07:05;;;;;;;22.00;12.52;;;11.00;61.40;;;;;;6277470;22;19999;-67
2021/10/26 08:09:31;;;;;;;24.75;12.43;;;11.10;61.50;;;;;;6277369;22;19995;-66
2021/10/26 08:11:57;;;;;;;27.48;14.07;;;11.10;61.60;;;;;;6277628;22;20027;-67
2021/10/26 08:14:23;;;;;;;51.70;15.25;;;11.10;61.50;;;;;;6277144;22;20351;-67
2021/10/26 08:16:48;;;;;;;44.05;13.73;;;11.20;61.40;;;;;;6277331;22;20003;-67
2021/10/26 08:19:15;;;;;;;28.98;13.45;;;11.20;61.30;;;;;;6277180;22;20071;-67
2021/10/26 08:21:41;;;;;;;27.05;13.65;;;11.20;61.30;;;;;;6277142;22;20002;-67
2021/10/26 08:24:08;;;;;;;24.13;12.90;;;11.20;61.40;;;;;;6277229;22;20428;-66
2021/10/26 08:26:40;;;;;;;24.25;13.27;;;11.30;61.40;;;;;;6277079;22;20083;-67
2021/10/26 08:29:21;;;;;;;23.52;12.30;;;11.30;61.20;;;;;;6277146;22;20443;-66
2021/10/26 08:37:11;;;;;;;16.20;9.95;;;11.30;61.00;;;;;;6287771;22;20430;-66
2021/10/26 08:39:38;;;;;;;16.50;11.00;;;11.30;61.00;;;;;;6277015;22;20066;-66
2021/10/26 08:42:09;;;;;;;14.50;9.63;;;11.30;61.10;;;;;;6277029;22;20087;-67
2021/10/26 08:44:36;;;;;;;16.08;9.65;;;11.40;61.20;;;;;;6276939;22;20003;-66
2021/10/26 08:47:02;;;;;;;13.30;9.10;;;11.40;61.20;;;;;;6277071;22;20437;-67
2021/10/26 08:49:28;;;;;;;24.70;10.77;;;11.40;60.90;;;;;;6276725;22;20075;-67
2021/10/26 08:51:54;;;;;;;18.70;10.60;;;11.50;61.10;;;;;;6275148;22;20039;-67
2021/10/26 08:54:21;;;;;;;14.27;9.23;;;11.50;61.10;;;;;;6276848;22;20007;-67
2021/10/26 08:56:48;;;;;;;12.73;8.68;;;11.60;61.30;;;;;;6276703;22;20446;-67
2021/10/26 08:59:18;;;;;;;15.75;8.65;;;11.60;61.30;;;;;;6276622;22;20071;-67
2021/10/26 09:01:46;;;;;;;13.75;8.98;;;11.70;61.40;;;;;;6276815;22;20438;-67
2021/10/26 09:04:12;;;;;;;11.23;7.93;;;11.80;61.50;;;;;;6276878;22;20007;-67
2021/10/26 09:06:46;;;;;;;11.32;7.63;;;11.80;61.50;;;;;;6276824;22;20006;-67
2021/10/26 09:09:23;;;;;;;12.30;8.05;;;11.90;61.40;;;;;;6276827;22;20054;-67
2021/10/26 09:17:45;;;;;;;17.08;10.10;;;12.10;60.70;;;;;;6276766;22;20007;-67
2021/10/26 09:20:16;;;;;;;19.95;10.35;;;12.20;60.60;;;;;;6276638;22;20480;-67
2021/10/26 09:22:56;;;;;;;21.48;10.43;;;12.30;60.50;;;;;;6276766;22;20331;-67
2021/10/26 09:25:38;;;;;;;17.58;9.98;;;12.30;60.30;;;;;;6276710;22;20011;-67
2021/10/26 09:28:15;;;;;;;20.80;10.30;;;12.40;60.30;;;;;;6276543;22;19999;-66
2021/10/26 09:30:59;;;;;;;19.17;10.63;;;12.50;60.20;;;;;;6276562;22;19999;-67
2021/10/26 09:33:37;;;;;;;20.90;11.80;;;12.60;60.20;;;;;;6274933;22;20008;-67
2021/10/26 09:36:21;;;;;;;28.05;13.65;;;12.60;60.00;;;;;;6276648;22;20004;-67
2021/10/26 09:38:54;;;;;;;28.33;15.32;;;12.70;59.90;;;;;;6275090;22;20000;-67
2021/10/26 09:41:20;;;;;;;21.33;12.57;;;12.80;59.80;;;;;;6276473;22;19996;-67
2021/10/26 09:43:46;;;;;;;21.77;12.38;;;12.80;59.90;;;;;;6275895;22;20010;-67
2021/10/26 09:46:12;;;;;;;25.23;13.93;;;12.90;60.00;;;;;;6276428;22;20008;-66
2021/10/26 09:48:38;;;;;;;29.65;15.50;;;12.90;59.80;;;;;;6276316;22;20008;-67
2021/10/26 09:51:09;;;;;;;27.45;15.25;;;13.00;59.80;;;;;;6276273;22;20435;-67
2021/10/26 09:53:36;;;;;;;26.98;15.68;;;13.10;59.70;;;;;;6276354;22;20011;-67
2021/10/26 09:56:10;;;;;;;28.92;15.73;;;13.20;59.50;;;;;;6276137;22;20006;-67
2021/10/26 09:58:36;;;;;;;24.75;14.35;;;13.20;59.20;;;;;;6276322;22;20003;-67
2021/10/26 10:01:07;;;;;;;24.05;15.07;;;13.30;59.10;;;;;;6276089;22;20004;-68
2021/10/26 10:03:33;;;;;;;28.42;13.98;;;13.40;59.10;;;;;;6274706;22;20438;-67
2021/10/26 10:06:01;;;;;;;22.08;13.60;;;13.50;59.20;;;;;;6276253;22;20004;-67
2021/10/26 10:08:37;;;;;;;27.23;13.52;;;13.50;59.10;;;;;;6276187;22;20492;-68
2021/10/26 10:11:17;;;;;;;23.33;14.32;;;13.70;59.00;;;;;;6276175;22;20004;-67
2021/10/26 10:13:51;;;;;;;24.02;13.93;;;13.70;58.80;;;;;;6274115;22;20324;-68
2021/10/26 10:16:25;;;;;;;21.80;12.25;;;13.80;58.60;;;;;;6276314;22;20070;-67
2021/10/26 10:18:52;;;;;;;20.65;12.90;;;13.90;58.70;;;;;;6276182;22;20000;-68
2021/10/26 10:21:24;;;;;;;23.38;12.95;;;14.00;58.70;;;;;;6276198;22;20022;-68
2021/10/26 10:23:50;;;;;;;21.02;14.20;;;14.10;58.40;;;;;;6276143;22;20049;-68
2021/10/26 10:26:18;;;;;;;20.58;13.98;;;14.10;58.00;;;;;;6275988;22;20053;-68
2021/10/26 10:28:48;;;;;;;22.55;14.43;;;14.20;57.90;;;;;;6276081;22;20003;-67
2021/10/26 10:31:19;;;;;;;24.55;14.88;;;14.20;57.70;;;;;;6275879;22;20010;-68
2021/10/26 10:33:45;;;;;;;20.60;12.98;;;14.30;57.60;;;;;;6275747;22;20011;-68
2021/10/26 10:36:12;;;;;;;24.67;13.30;;;14.40;57.60;;;;;;6274400;22;20391;-68
2021/10/26 10:38:38;;;;;;;21.30;14.68;;;14.50;57.40;;;;;;6275679;22;20000;-68
2021/10/26 10:41:24;;;;;;;24.38;15.70;;;14.50;57.30;;;;;;6276104;22;19999;-68
2021/10/26 10:43:51;;;;;;;24.85;15.23;;;14.60;56.70;;;;;;6275989;22;20035;-68
2021/10/26 10:46:44;;;;;;;26.88;15.80;;;14.60;56.60;;;;;;6275914;22;20011;-68
2021/10/26 10:49:26;;;;;;;24.83;13.90;;;14.60;56.50;;;;;;6274327;22;20000;-68
2021/10/26 10:52:00;;;;;;;22.38;15.40;;;14.60;56.40;;;;;;6274373;22;20011;-68
2021/10/26 10:54:38;;;;;;;32.00;17.45;;;14.70;56.20;;;;;;6276002;22;20011;-68
2021/10/26 10:57:36;;;;;;;19.20;12.90;;;14.70;56.10;;;;;;6277928;22;20006;-68
2021/10/26 11:00:20;;;;;;;21.35;13.50;;;14.80;56.20;;;;;;6276323;22;20057;-68
2021/10/26 11:02:55;;;;;;;20.40;13.90;;;14.80;56.00;;;;;;6277844;22;20011;-68
2021/10/26 11:05:42;;;;;;;22.23;12.50;;;14.90;55.60;;;;;;6276119;22;20331;-68
2021/10/26 11:08:14;;;;;;;19.60;12.30;;;15.00;55.60;;;;;;6277949;22;20045;-68
2021/10/26 11:10:49;;;;;;;18.80;11.82;;;15.10;55.70;;;;;;6277643;22;20003;-67
2021/10/26 11:13:31;;;;;;;18.05;12.00;;;15.10;56.10;;;;;;6277483;22;20008;-68
2021/10/26 11:15:59;;;;;;;16.50;10.68;;;15.20;55.50;;;;;;6277626;22;20042;-68
2021/10/26 11:18:39;;;;;;;16.50;11.65;;;15.30;55.60;;;;;;6277391;22;20431;-68
2021/10/26 11:21:10;;;;;;;21.33;12.98;;;15.30;55.10;;;;;;6277391;22;20450;-68
2021/10/26 11:23:44;;;;;;;16.02;10.40;;;15.40;55.00;;;;;;6277677;22;20010;-68
2021/10/26 11:26:12;;;;;;;21.23;12.00;;;15.60;54.90;;;;;;6277713;22;20003;-68
2021/10/26 11:28:40;;;;;;;17.42;11.73;;;15.60;54.60;;;;;;6277705;22;20435;-68
2021/10/26 11:31:12;;;;;;;16.98;11.45;;;15.70;54.20;;;;;;6275866;22;20054;-67
2021/10/26 11:33:40;;;;;;;18.08;11.60;;;15.70;54.30;;;;;;6275574;22;20007;-68
2021/10/26 11:36:08;;;;;;;20.17;12.02;;;15.80;54.20;;;;;;6277693;22;20418;-68
2021/10/26 11:38:48;;;;;;;19.55;12.27;;;15.80;54.10;;;;;;6277464;22;20074;-68
2021/10/26 11:41:33;;;;;;;16.67;10.82;;;15.80;54.00;;;;;;6277580;22;20722;-68
2021/10/26 11:44:00;;;;;;;18.27;10.45;;;15.90;53.80;;;;;;6277568;22;20007;-68
2021/10/26 11:46:32;;;;;;;17.92;10.70;;;15.90;53.90;;;;;;6277442;22;20004;-68
2021/10/26 11:49:19;;;;;;;22.25;10.35;;;16.00;53.60;;;;;;6277407;22;20004;-68
2021/10/26 11:51:52;;;;;;;17.13;10.30;;;16.00;53.10;;;;;;6277499;22;20077;-68
2021/10/26 11:54:22;;;;;;;18.25;10.75;;;16.00;53.00;;;;;;6277225;22;20075;-68
2021/10/26 11:56:59;;;;;;;14.70;9.70;;;16.00;52.70;;;;;;6276920;22;20436;-68
2021/10/26 11:59:29;;;;;;;18.05;9.07;;;16.10;53.10;;;;;;6275681;22;20335;-68
2021/10/26 12:02:02;;;;;;;17.13;10.07;;;16.10;52.90;;;;;;6277337;22;20516;-67
2021/10/26 12:04:39;;;;;;;17.27;10.70;;;16.20;52.90;;;;;;6277216;22;20427;-67
2021/10/26 12:07:15;;;;;;;13.80;8.80;;;16.30;52.70;;;;;;6276735;22;20331;-67
2021/10/26 12:09:49;;;;;;;11.20;8.15;;;16.30;52.70;;;;;;6275586;22;20004;-68
2021/10/26 12:12:20;;;;;;;14.73;9.30;;;16.40;52.80;;;;;;6277290;22;20000;-68
2021/10/26 12:14:47;;;;;;;12.88;8.20;;;16.40;52.80;;;;;;6277297;22;20050;-68
2021/10/26 12:17:25;;;;;;;13.90;8.55;;;16.50;52.60;;;;;;6277237;22;20004;-67
2021/10/26 12:20:07;;;;;;;13.40;8.80;;;16.50;52.20;;;;;;6277147;22;20226;-68
2021/10/26 12:22:53;;;;;;;15.43;8.82;;;16.60;52.10;;;;;;6277176;22;20080;-67
2021/10/26 12:25:32;;;;;;;15.35;8.95;;;16.70;52.20;;;;;;6277132;22;20435;-67
2021/10/26 12:28:01;;;;;;;15.38;9.45;;;16.70;52.00;;;;;;6277120;22;20079;-67
2021/10/26 12:30:39;;;;;;;13.48;9.43;;;16.70;51.80;;;;;;6277056;22;20000;-68
2021/10/26 12:33:21;;;;;;;14.45;9.18;;;16.70;51.50;;;;;;6277068;22;20070;-67
2021/10/26 12:35:53;;;;;;;16.73;9.70;;;16.80;51.90;;;;;;6276996;22;20427;-68
2021/10/26 12:38:29;;;;;;;13.68;9.00;;;16.80;51.90;;;;;;6276888;22;20070;-68
2021/10/26 12:41:07;;;;;;;16.50;8.77;;;16.80;51.70;;;;;;6277087;22;20000;-68
2021/10/26 12:43:34;;;;;;;17.70;9.43;;;16.80;51.70;;;;;;6277027;22;20124;-67
2021/10/26 12:46:22;;;;;;;14.75;9.48;;;16.90;51.50;;;;;;6276985;22;20079;-67
2021/10/26 12:48:49;;;;;;;14.95;10.10;;;16.90;51.40;;;;;;6276982;22;20053;-67
2021/10/26 12:51:23;;;;;;;18.05;10.55;;;16.90;51.10;;;;;;6275667;22;20458;-68
2021/10/26 12:53:49;;;;;;;22.55;11.18;;;17.00;50.80;;;;;;6277175;22;20004;-67
2021/10/26 12:56:19;;;;;;;24.65;12.77;;;16.90;50.40;;;;;;6277252;22;20006;-68
2021/10/26 12:58:46;;;;;;;16.65;11.35;;;16.90;50.50;;;;;;6277291;22;19996;-68